createdAt,value
2019-04-16T03:20:01.369Z,0.00
2019-04-16T03:25:01.034Z,37.00
2019-04-16T03:30:03.389Z,38.60
2019-04-16T03:35:01.089Z,38.80
2019-04-16T03:40:14.489Z,38.60
2019-04-16T03:45:01.042Z,40.50
2019-04-16T03:50:01.427Z,37.60
2019-04-16T03:55:01.051Z,37.10
2019-04-16T04:00:01.129Z,35.40
2019-04-16T04:05:06.115Z,34.10
2019-04-16T04:10:01.552Z,39.30
2019-04-16T04:15:01.141Z,37.10
2019-04-16T04:20:04.233Z,34.90
2019-04-16T04:25:04.389Z,37.60
2019-04-16T04:30:01.371Z,34.80
2019-04-16T04:35:01.486Z,37.80
2019-04-16T04:40:01.396Z,39.80
2019-04-16T04:45:01.073Z,39.80
2019-04-16T04:50:03.300Z,41.80
2019-04-16T04:55:01.151Z,42.90
2019-04-16T05:00:01.172Z,47.60
2019-04-16T05:05:01.526Z,50.30
2019-04-16T05:10:01.458Z,65.70
2019-04-16T05:15:03.860Z,77.70
2019-04-16T05:20:01.689Z,63.50
2019-04-16T05:25:02.461Z,71.80
2019-04-16T05:30:01.180Z,82.60
2019-04-16T05:35:01.070Z,89.60
2019-04-16T05:40:01.137Z,89.60
2019-04-16T05:45:02.453Z,111.00
2019-04-16T05:50:01.117Z,122.20
2019-04-16T05:55:01.731Z,127.40
2019-04-16T06:00:03.347Z,138.10
2019-04-16T06:05:01.150Z,172.50
2019-04-16T06:10:01.173Z,171.50
2019-04-16T06:15:01.137Z,177.20
2019-04-16T06:20:01.135Z,178.10
2019-04-16T06:25:08.398Z,168.50
2019-04-16T06:30:02.191Z,130.60
2019-04-16T06:35:01.094Z,46.40
2019-04-16T06:40:01.867Z,35.40
2019-04-16T06:45:01.734Z,35.40
2019-04-16T06:50:01.440Z,32.90
2019-04-16T06:55:03.758Z,32.60
2019-04-16T07:00:02.354Z,34.40
2019-04-16T07:05:02.113Z,37.40
2019-04-16T07:10:01.186Z,33.50
2019-04-16T07:15:01.625Z,35.70
2019-04-16T07:20:04.513Z,34.90
2019-04-16T07:25:04.418Z,33.80
2019-04-16T07:30:06.589Z,33.10
2019-04-16T07:35:01.090Z,32.60
2019-04-16T07:40:01.497Z,32.20
2019-04-16T07:45:01.243Z,31.60
2019-04-16T07:50:01.519Z,27.30
2019-04-16T07:55:01.182Z,25.80
2019-04-16T08:00:01.122Z,32.60
2019-04-16T08:05:01.293Z,23.50
2019-04-16T08:10:02.950Z,24.20
2019-04-16T08:15:12.597Z,24.20
2019-04-16T08:20:01.112Z,29.30
2019-04-16T08:25:03.238Z,26.00
2019-04-16T08:30:03.498Z,25.50
2019-04-16T08:35:01.076Z,25.90
2019-04-16T08:40:01.228Z,28.70
2019-04-16T08:45:01.400Z,30.00
2019-04-16T08:50:01.075Z,33.30
2019-04-16T08:55:01.209Z,31.70
2019-04-16T09:00:01.650Z,31.80
2019-04-16T09:05:06.001Z,30.20
2019-04-16T09:10:10.153Z,30.20
2019-04-16T09:15:01.493Z,29.70
2019-04-16T09:20:01.715Z,28.80
2019-04-16T09:25:01.106Z,28.90
2019-04-16T09:30:01.155Z,26.80
2019-04-16T09:35:08.846Z,27.40
2019-04-16T09:40:01.170Z,25.50
2019-04-16T09:45:01.750Z,28.00
2019-04-16T09:50:01.103Z,24.50
2019-04-16T09:55:01.195Z,26.10
2019-04-16T10:00:01.525Z,25.20
2019-04-16T10:05:01.222Z,23.80
2019-04-16T10:10:01.155Z,25.30
2019-04-16T10:15:01.098Z,23.20
2019-04-16T10:20:01.080Z,22.10
2019-04-16T10:25:01.125Z,23.30
2019-04-16T10:30:01.253Z,23.70
2019-04-16T10:35:01.130Z,23.70
2019-04-16T10:40:01.104Z,23.20
2019-04-16T10:45:01.424Z,21.80
2019-04-16T10:50:01.469Z,20.80
2019-04-16T10:55:01.093Z,19.40
2019-04-16T11:00:01.126Z,20.00
2019-04-16T11:05:03.023Z,22.00
2019-04-16T11:10:01.455Z,22.90
2019-04-16T11:15:01.195Z,26.80
2019-04-16T11:20:01.045Z,33.20
2019-04-16T11:25:01.436Z,19.70
2019-04-16T11:30:01.083Z,19.00
2019-04-16T11:35:01.076Z,20.20
2019-04-16T11:40:01.604Z,19.70
2019-04-16T11:45:01.595Z,17.70
2019-04-16T11:50:01.201Z,20.00
2019-04-16T11:55:01.411Z,18.10
2019-04-16T12:00:07.547Z,20.30
2019-04-16T12:05:01.585Z,17.60
2019-04-16T12:10:01.149Z,17.70
2019-04-16T12:15:01.255Z,18.70
2019-04-16T12:20:01.193Z,17.90
2019-04-16T12:25:01.099Z,14.60
2019-04-16T12:30:01.085Z,18.30
2019-04-16T12:35:01.179Z,18.80
2019-04-16T12:40:01.061Z,16.80
2019-04-16T12:45:01.145Z,16.60
2019-04-16T12:50:01.292Z,16.80
2019-04-16T12:55:01.216Z,17.60
2019-04-16T13:00:01.108Z,16.00
2019-04-16T13:05:01.161Z,15.80
2019-04-16T13:10:01.089Z,15.90
2019-04-16T13:15:01.590Z,16.90
2019-04-16T13:20:01.054Z,14.30
2019-04-16T13:25:01.216Z,14.90
2019-04-16T13:30:02.073Z,14.40
2019-04-16T13:35:01.090Z,14.80
2019-04-16T13:40:01.162Z,16.90
2019-04-16T13:45:16.258Z,16.10
2019-04-16T13:50:03.307Z,17.20
2019-04-16T13:55:01.714Z,15.70
2019-04-16T14:00:04.453Z,15.00
2019-04-16T14:05:04.247Z,16.30
2019-04-16T14:10:01.095Z,15.50
2019-04-16T14:15:01.217Z,14.50
2019-04-16T14:20:01.020Z,12.50
2019-04-16T14:25:01.067Z,14.90
2019-04-16T14:30:01.058Z,16.50
2019-04-16T14:35:01.242Z,12.30
2019-04-16T14:40:01.036Z,13.80
2019-04-16T14:45:06.069Z,12.70
2019-04-16T14:50:01.118Z,15.00
2019-04-16T14:55:01.131Z,13.70
2019-04-16T15:00:01.274Z,12.90
2019-04-16T15:05:01.064Z,14.50
2019-04-16T15:10:02.497Z,15.00
2019-04-16T15:15:01.310Z,11.70
2019-04-16T15:20:01.087Z,15.70
2019-04-16T15:25:01.081Z,12.10
2019-04-16T15:30:01.365Z,13.90
2019-04-16T15:35:01.027Z,16.20
2019-04-16T15:40:01.345Z,16.30
2019-04-16T15:45:01.040Z,16.50
2019-04-16T15:50:01.333Z,12.00
2019-04-16T15:55:01.103Z,14.20
2019-04-16T16:00:01.372Z,15.30
2019-04-16T16:05:01.239Z,18.90
2019-04-16T16:10:01.298Z,14.30
2019-04-16T16:15:01.083Z,15.00
2019-04-16T16:20:01.028Z,14.40
2019-04-16T16:25:05.375Z,14.90
2019-04-16T16:30:01.439Z,14.10
2019-04-16T16:35:01.086Z,14.20
2019-04-16T16:40:01.044Z,14.50
2019-04-16T16:45:01.937Z,15.50
2019-04-16T16:50:01.059Z,15.20
2019-04-16T16:55:01.409Z,18.40
2019-04-16T17:00:01.046Z,14.80
2019-04-16T17:05:01.156Z,20.40
2019-04-16T17:10:02.619Z,13.70
2019-04-16T17:15:01.497Z,18.30
2019-04-16T17:20:01.032Z,25.10
2019-04-16T17:25:01.474Z,37.20
2019-04-16T17:30:01.018Z,25.30
2019-04-16T17:35:01.631Z,48.70
2019-04-16T17:40:01.422Z,42.10
2019-04-16T17:45:01.308Z,41.40
2019-04-16T17:50:04.020Z,39.80
2019-04-16T17:55:01.073Z,24.50
2019-04-16T18:00:04.380Z,22.70
2019-04-16T18:05:01.089Z,22.90
2019-04-16T18:10:01.991Z,19.30
2019-04-16T18:15:01.089Z,27.60
2019-04-16T18:20:01.551Z,32.30
2019-04-16T18:25:01.035Z,28.20
2019-04-16T18:30:05.213Z,30.70
2019-04-16T18:35:01.085Z,32.20
2019-04-16T18:40:04.959Z,28.60
2019-04-16T18:45:01.141Z,22.60
2019-04-16T18:50:01.284Z,25.30
2019-04-16T18:55:01.074Z,24.30
2019-04-16T19:00:01.114Z,25.50
2019-04-16T19:05:01.174Z,27.40
2019-04-16T19:10:01.580Z,30.60
2019-04-16T19:15:02.254Z,26.20
2019-04-16T19:20:03.921Z,41.90
2019-04-16T19:25:01.436Z,29.50
2019-04-16T19:30:01.288Z,28.70
2019-04-16T19:35:08.766Z,23.40
2019-04-16T19:40:01.163Z,20.60
2019-04-16T19:45:01.386Z,26.20
2019-04-16T19:50:01.672Z,23.70
2019-04-16T19:55:01.238Z,60.90
2019-04-16T20:00:01.740Z,39.50
2019-04-16T20:05:01.849Z,29.40
2019-04-16T20:10:01.907Z,32.30
2019-04-16T20:15:01.211Z,30.00
2019-04-16T20:20:01.483Z,31.80
2019-04-16T20:25:01.895Z,30.90
2019-04-16T20:30:01.803Z,35.20
2019-04-16T20:35:01.368Z,26.30
2019-04-16T20:40:01.672Z,27.60
2019-04-16T20:45:01.629Z,23.80
2019-04-16T20:50:03.949Z,23.40
2019-04-16T20:55:01.972Z,25.70
2019-04-16T21:00:02.137Z,23.10
2019-04-16T21:05:02.579Z,25.20
2019-04-16T21:10:03.538Z,34.70
2019-04-16T21:15:01.173Z,28.50
2019-04-16T21:20:01.836Z,25.20
2019-04-16T21:25:01.116Z,68.90
2019-04-16T21:30:03.827Z,28.40
2019-04-16T21:35:05.497Z,36.60
2019-04-16T21:40:01.452Z,56.10
2019-04-16T21:45:01.171Z,29.80
2019-04-16T21:50:01.200Z,46.70
2019-04-16T21:55:04.055Z,32.00
2019-04-16T22:00:01.460Z,36.50
2019-04-16T22:05:01.078Z,31.30
2019-04-16T22:10:01.094Z,47.40
2019-04-16T22:15:01.275Z,43.80
2019-04-16T22:20:03.896Z,32.20
2019-04-16T22:25:01.471Z,42.10
2019-04-16T22:30:01.535Z,33.20
2019-04-16T22:35:10.054Z,35.50
2019-04-16T22:40:01.593Z,47.20
2019-04-16T22:45:01.138Z,35.10
2019-04-16T22:50:15.096Z,38.50
2019-04-16T22:55:01.014Z,36.40
2019-04-16T23:00:01.104Z,44.30
2019-04-16T23:05:01.115Z,36.80
2019-04-16T23:10:01.053Z,41.80
2019-04-16T23:15:01.155Z,42.80
2019-04-16T23:20:01.193Z,43.30
2019-04-16T23:25:01.302Z,39.10
2019-04-16T23:30:01.486Z,37.90
2019-04-16T23:35:01.547Z,32.50
2019-04-16T23:40:01.094Z,41.60
2019-04-16T23:45:01.803Z,37.20
2019-04-16T23:50:04.486Z,37.80
2019-04-16T23:55:01.425Z,30.70
